createdAt,value
2019-06-08T00:01:02.246Z,19.23
2019-06-08T00:03:34.628Z,19.47
2019-06-08T00:06:06.679Z,19.24
2019-06-08T00:08:38.863Z,19.12
2019-06-08T00:11:10.983Z,19.13
2019-06-08T00:13:43.059Z,19.02
2019-06-08T00:16:15.309Z,19.26
2019-06-08T00:18:47.302Z,19.06
2019-06-08T00:21:19.685Z,19.47
2019-06-08T00:23:51.866Z,19.15
2019-06-08T00:26:24.423Z,19.08
2019-06-08T00:28:57.748Z,19.20
2019-06-08T00:31:29.889Z,18.99
2019-06-08T00:34:01.964Z,18.87
2019-06-08T00:36:34.272Z,18.78
2019-06-08T00:39:09.210Z,18.84
2019-06-08T00:41:40.559Z,18.79
2019-06-08T00:44:12.387Z,19.13
2019-06-08T00:46:45.657Z,19.23
2019-06-08T00:49:18.462Z,19.04
2019-06-08T00:51:50.680Z,19.35
2019-06-08T00:54:23.481Z,19.07
2019-06-08T00:56:55.790Z,19.47
2019-06-08T00:59:30.362Z,19.56
2019-06-08T01:02:02.650Z,19.20
2019-06-08T01:04:34.790Z,19.00
2019-06-08T01:07:07.047Z,18.73
2019-06-08T01:09:39.019Z,18.77
2019-06-08T01:12:11.208Z,19.07
2019-06-08T01:14:43.319Z,19.41
2019-06-08T01:17:15.354Z,18.99
2019-06-08T01:19:47.927Z,18.92
2019-06-08T01:22:21.488Z,19.44
2019-06-08T01:24:53.617Z,19.29
2019-06-08T01:27:26.109Z,18.99
2019-06-08T01:29:58.192Z,19.69
2019-06-08T01:32:30.585Z,19.97
2019-06-08T01:35:02.780Z,19.65
2019-06-08T01:37:36.084Z,19.22
2019-06-08T01:40:08.680Z,19.53
2019-06-08T01:42:42.397Z,19.23
2019-06-08T01:45:16.490Z,19.07
2019-06-08T01:47:48.747Z,18.95
2019-06-08T01:50:20.730Z,19.54
2019-06-08T01:52:52.887Z,19.24
2019-06-08T01:55:25.184Z,19.18
2019-06-08T01:57:57.386Z,19.00
2019-06-08T02:00:32.513Z,19.15
2019-06-08T02:03:03.464Z,18.93
2019-06-08T02:05:35.643Z,18.75
2019-06-08T02:08:08.039Z,19.03
2019-06-08T02:10:40.156Z,18.92
2019-06-08T02:13:12.464Z,19.25
2019-06-08T02:15:44.663Z,18.98
2019-06-08T02:18:16.934Z,19.31
2019-06-08T02:20:49.099Z,19.07
2019-06-08T02:23:21.380Z,19.52
2019-06-08T02:25:53.566Z,19.37
2019-06-08T02:28:25.793Z,19.29
2019-06-08T02:30:58.047Z,19.63
2019-06-08T02:33:30.395Z,19.69
2019-06-08T02:36:03.135Z,19.66
2019-06-08T02:38:36.080Z,19.83
2019-06-08T02:41:08.439Z,20.28
2019-06-08T02:43:40.789Z,20.53
2019-06-08T02:46:12.876Z,20.87
2019-06-08T02:49:02.301Z,21.97
2019-06-08T02:51:21.239Z,22.22
2019-06-08T02:53:53.618Z,22.94
2019-06-08T02:56:27.628Z,22.27
2019-06-08T02:59:01.454Z,22.63
2019-06-08T03:01:38.410Z,22.84
2019-06-08T03:04:11.894Z,23.08
2019-06-08T03:06:46.056Z,22.99
2019-06-08T03:09:20.794Z,22.81
2019-06-08T03:11:55.479Z,22.64
2019-06-08T03:14:28.032Z,22.66
2019-06-08T03:17:00.132Z,22.78
2019-06-08T03:19:33.290Z,22.71
2019-06-08T03:22:05.615Z,22.60
2019-06-08T03:24:38.721Z,22.64
2019-06-08T03:27:10.836Z,22.84
2019-06-08T03:29:44.014Z,22.92
2019-06-08T03:32:16.400Z,22.94
2019-06-08T03:34:55.666Z,23.15
2019-06-08T03:37:22.256Z,23.13
2019-06-08T03:39:54.306Z,23.09
2019-06-08T03:42:27.321Z,23.20
2019-06-08T03:44:59.468Z,23.88
2019-06-08T03:47:31.456Z,24.16
2019-06-08T03:50:04.852Z,24.37
2019-06-08T03:52:37.757Z,24.56
2019-06-08T03:55:11.194Z,24.51
2019-06-08T03:57:44.087Z,24.63
2019-06-08T04:00:16.411Z,24.67
2019-06-08T04:02:50.113Z,24.95
2019-06-08T04:05:22.380Z,24.83
2019-06-08T04:07:54.469Z,25.07
2019-06-08T04:10:27.583Z,25.10
2019-06-08T04:12:59.641Z,25.15
2019-06-08T04:15:31.905Z,25.12
2019-06-08T04:18:03.922Z,25.23
2019-06-08T04:20:37.839Z,25.16
2019-06-08T04:23:09.780Z,25.08
2019-06-08T04:25:44.784Z,25.29
2019-06-08T04:28:16.622Z,25.33
2019-06-08T04:30:49.873Z,25.50
2019-06-08T04:33:22.151Z,25.77
2019-06-08T04:35:54.272Z,25.67
2019-06-08T04:38:26.188Z,25.39
2019-06-08T04:40:58.238Z,25.55
2019-06-08T04:43:30.267Z,25.63
2019-06-08T04:46:02.300Z,25.25
2019-06-08T04:48:34.647Z,25.79
2019-06-08T04:51:06.809Z,26.02
2019-06-08T04:53:40.698Z,26.39
2019-06-08T04:56:12.701Z,26.37
2019-06-08T04:58:46.828Z,25.80
2019-06-08T05:01:18.609Z,26.75
2019-06-08T05:03:50.955Z,27.05
2019-06-08T05:06:24.152Z,26.67
2019-06-08T05:08:56.247Z,26.91
2019-06-08T05:11:28.438Z,27.05
2019-06-08T05:14:00.674Z,27.44
2019-06-08T05:16:33.005Z,27.42
2019-06-08T05:19:05.094Z,27.76
2019-06-08T05:21:37.342Z,27.75
2019-06-08T05:24:09.501Z,27.71
2019-06-08T05:26:42.419Z,28.06
2019-06-08T05:29:15.691Z,27.54
2019-06-08T05:31:47.686Z,27.69
2019-06-08T05:34:19.753Z,28.14
2019-06-08T05:36:51.950Z,28.22
2019-06-08T05:39:24.026Z,28.60
2019-06-08T05:41:56.842Z,28.74
2019-06-08T05:44:28.910Z,28.91
2019-06-08T05:47:01.066Z,29.87
2019-06-08T05:49:33.176Z,30.20
2019-06-08T05:52:05.508Z,31.29
2019-06-08T05:54:37.767Z,32.66
2019-06-08T05:57:10.009Z,33.47
2019-06-08T05:59:42.178Z,31.65
2019-06-08T06:02:14.276Z,31.38
2019-06-08T06:04:46.577Z,32.24
2019-06-08T06:07:19.873Z,32.28
2019-06-08T06:09:52.261Z,33.25
2019-06-08T06:12:24.375Z,33.43
2019-06-08T06:14:56.416Z,33.32
2019-06-08T06:17:28.814Z,33.86
2019-06-08T06:20:02.365Z,34.12
2019-06-08T06:22:34.493Z,33.80
2019-06-08T06:25:08.016Z,32.49
2019-06-08T06:27:41.362Z,33.34
2019-06-08T06:30:13.802Z,34.09
2019-06-08T06:32:46.085Z,35.44
2019-06-08T06:35:18.312Z,34.52
2019-06-08T06:37:52.063Z,34.63
2019-06-08T06:40:25.911Z,34.73
2019-06-08T06:42:59.477Z,34.23
2019-06-08T06:45:31.588Z,34.73
2019-06-08T06:48:03.603Z,34.14
2019-06-08T06:50:35.672Z,33.47
2019-06-08T06:53:07.803Z,34.10
2019-06-08T06:55:41.255Z,35.46
2019-06-08T06:58:13.306Z,34.98
2019-06-08T07:00:45.516Z,34.46
2019-06-08T07:03:17.620Z,34.50
2019-06-08T07:05:50.000Z,33.85
2019-06-08T07:08:22.035Z,33.20
2019-06-08T07:10:55.344Z,30.93
2019-06-08T07:13:27.574Z,29.43
2019-06-08T07:16:16.922Z,28.40
2019-06-08T07:18:33.332Z,27.90
2019-06-08T07:21:05.470Z,27.60
2019-06-08T07:23:37.587Z,27.66
2019-06-08T07:26:09.668Z,27.57
2019-06-08T07:28:43.416Z,27.69
2019-06-08T07:31:15.595Z,27.66
2019-06-08T07:33:48.699Z,27.71
2019-06-08T07:36:23.012Z,27.78
2019-06-08T07:38:55.510Z,27.85
2019-06-08T07:41:27.875Z,27.74
2019-06-08T07:43:59.997Z,27.79
2019-06-08T07:46:35.021Z,27.69
2019-06-08T07:49:07.623Z,27.57
2019-06-08T07:51:40.078Z,27.35
2019-06-08T07:54:12.301Z,27.45
2019-06-08T07:56:44.377Z,27.57
2019-06-08T07:59:16.559Z,27.52
2019-06-08T08:01:49.868Z,27.63
2019-06-08T08:04:21.927Z,27.69
2019-06-08T08:06:54.569Z,27.63
2019-06-08T08:09:26.895Z,27.75
2019-06-08T08:11:59.628Z,27.75
2019-06-08T08:14:32.052Z,27.79
2019-06-08T08:17:04.159Z,27.89
2019-06-08T08:19:36.396Z,28.00
2019-06-08T08:22:22.101Z,28.02
2019-06-08T08:24:42.206Z,27.82
2019-06-08T08:27:14.313Z,27.74
2019-06-08T08:29:47.591Z,27.85
2019-06-08T08:32:19.904Z,27.91
2019-06-08T08:34:52.187Z,28.02
2019-06-08T08:37:24.220Z,28.01
2019-06-08T08:39:58.567Z,28.04
2019-06-08T08:42:30.225Z,28.09
2019-06-08T08:45:05.057Z,28.14
2019-06-08T08:47:38.689Z,28.10
2019-06-08T08:50:11.152Z,28.19
2019-06-08T08:52:43.180Z,28.22
2019-06-08T08:55:20.280Z,28.35
2019-06-08T08:57:50.713Z,28.44
2019-06-08T09:00:24.562Z,28.41
2019-06-08T09:03:15.911Z,28.24
2019-06-08T09:05:30.763Z,28.24
2019-06-08T09:08:04.024Z,28.30
2019-06-08T09:10:38.269Z,28.26
2019-06-08T09:13:12.069Z,28.27
2019-06-08T09:15:43.886Z,28.22
2019-06-08T09:18:15.942Z,28.33
2019-06-08T09:20:48.656Z,28.24
2019-06-08T09:23:21.903Z,28.28
2019-06-08T09:25:57.329Z,28.31
2019-06-08T09:28:28.535Z,28.48
2019-06-08T09:31:03.673Z,28.62
2019-06-08T09:33:34.825Z,28.54
2019-06-08T09:36:07.911Z,28.59
2019-06-08T09:38:40.731Z,28.66
2019-06-08T09:41:12.784Z,28.50
2019-06-08T09:43:44.803Z,28.60
2019-06-08T09:46:17.860Z,28.55
2019-06-08T09:48:50.803Z,28.59
2019-06-08T09:51:22.909Z,28.67
2019-06-08T09:53:56.105Z,28.81
2019-06-08T09:56:28.648Z,28.79
2019-06-08T09:59:04.027Z,28.65
2019-06-08T10:01:34.419Z,28.73
2019-06-08T10:04:09.307Z,28.68
2019-06-08T10:06:41.473Z,28.75
2019-06-08T10:09:13.542Z,28.77
2019-06-08T10:11:45.718Z,28.92
2019-06-08T10:14:18.730Z,29.04
2019-06-08T10:16:51.220Z,29.21
2019-06-08T10:19:23.409Z,29.21
2019-06-08T10:21:56.811Z,29.29
2019-06-08T10:24:28.995Z,29.44
2019-06-08T10:27:01.435Z,29.72
2019-06-08T10:29:33.621Z,29.86
2019-06-08T10:32:08.890Z,29.78
2019-06-08T10:34:41.430Z,29.88
2019-06-08T10:37:13.868Z,29.95
2019-06-08T10:39:47.850Z,29.82
2019-06-08T10:42:21.112Z,29.60
2019-06-08T10:44:53.193Z,29.53
2019-06-08T10:47:29.541Z,29.65
2019-06-08T10:50:05.466Z,29.86
2019-06-08T10:52:33.987Z,29.94
2019-06-08T10:55:10.531Z,30.13
2019-06-08T10:57:41.717Z,30.09
2019-06-08T11:00:22.684Z,29.75
2019-06-08T11:02:49.338Z,29.64
2019-06-08T11:05:21.467Z,29.75
2019-06-08T11:07:53.534Z,29.91
2019-06-08T11:10:26.500Z,29.96
2019-06-08T11:13:04.421Z,30.25
2019-06-08T11:15:32.319Z,30.42
2019-06-08T11:18:06.929Z,30.42
2019-06-08T11:20:39.093Z,30.61
2019-06-08T11:23:12.523Z,30.76
2019-06-08T11:25:44.838Z,30.52
2019-06-08T11:28:18.572Z,30.22
2019-06-08T11:30:50.740Z,30.33
2019-06-08T11:33:22.875Z,30.48
2019-06-08T11:35:54.995Z,30.56
2019-06-08T11:38:28.859Z,30.37
2019-06-08T11:41:04.056Z,30.30
2019-06-08T11:43:34.577Z,30.30
2019-06-08T11:46:06.760Z,30.31
2019-06-08T11:48:41.379Z,30.13
2019-06-08T11:51:13.192Z,30.08
2019-06-08T11:53:48.197Z,29.91
2019-06-08T11:56:19.190Z,29.93
2019-06-08T11:58:52.727Z,30.16
2019-06-08T12:01:24.680Z,30.11
2019-06-08T12:03:57.978Z,30.11
2019-06-08T12:06:29.976Z,30.14
2019-06-08T12:09:02.676Z,30.18
2019-06-08T12:11:34.929Z,30.30
2019-06-08T12:14:09.295Z,30.40
2019-06-08T12:16:40.601Z,30.27
2019-06-08T12:19:16.653Z,30.20
2019-06-08T12:21:49.601Z,30.23
2019-06-08T12:24:20.083Z,30.26
2019-06-08T12:26:58.931Z,30.17
2019-06-08T12:29:28.248Z,30.02
2019-06-08T12:32:00.536Z,30.05
2019-06-08T12:34:32.878Z,30.10
2019-06-08T12:37:05.376Z,30.10
2019-06-08T12:39:38.698Z,30.18
2019-06-08T12:42:16.846Z,30.24
2019-06-08T12:44:44.602Z,30.25
2019-06-08T12:47:20.908Z,30.25
2019-06-08T12:49:50.383Z,30.25
2019-06-08T12:52:22.652Z,30.23
2019-06-08T12:55:03.423Z,30.18
2019-06-08T12:57:29.529Z,30.31
2019-06-08T13:00:01.643Z,30.13
2019-06-08T13:02:34.865Z,30.23
2019-06-08T13:05:11.593Z,30.26
2019-06-08T13:07:40.984Z,30.27
2019-06-08T13:10:15.310Z,30.32
2019-06-08T13:12:47.917Z,30.29
2019-06-08T13:15:22.181Z,30.41
2019-06-08T13:17:54.133Z,30.53
2019-06-08T13:20:28.240Z,30.48
2019-06-08T13:23:00.457Z,30.54
2019-06-08T13:25:40.286Z,30.44
2019-06-08T13:28:10.896Z,30.60
2019-06-08T13:30:40.292Z,30.55
2019-06-08T13:33:12.357Z,30.23
2019-06-08T13:35:44.430Z,30.27
2019-06-08T13:38:17.311Z,30.34
2019-06-08T13:40:50.312Z,30.42
2019-06-08T13:43:22.762Z,30.55
2019-06-08T13:45:54.924Z,30.67
2019-06-08T13:48:26.887Z,30.62
2019-06-08T13:50:59.294Z,30.62
2019-06-08T13:53:31.919Z,30.72
2019-06-08T13:56:04.026Z,30.65
2019-06-08T13:58:38.091Z,30.39
2019-06-08T14:01:10.217Z,30.48
2019-06-08T14:03:43.626Z,30.83
2019-06-08T14:06:16.571Z,31.03
2019-06-08T14:08:49.893Z,31.10
2019-06-08T14:11:22.624Z,31.12
2019-06-08T14:13:58.368Z,30.99
2019-06-08T14:16:29.916Z,30.95
2019-06-08T14:19:01.987Z,31.03
2019-06-08T14:21:38.753Z,30.86
2019-06-08T14:24:07.865Z,30.78
2019-06-08T14:26:40.001Z,30.74
2019-06-08T14:29:12.050Z,30.76
2019-06-08T14:31:45.067Z,30.62
2019-06-08T14:34:18.686Z,30.46
2019-06-08T14:36:50.855Z,30.35
2019-06-08T14:39:23.541Z,30.33
2019-06-08T14:41:57.835Z,30.40
2019-06-08T14:44:32.214Z,30.41
2019-06-08T14:47:07.965Z,30.27
2019-06-08T14:49:39.394Z,30.20
2019-06-08T14:52:11.724Z,29.84
2019-06-08T14:54:43.759Z,29.74
2019-06-08T14:57:17.828Z,29.57
2019-06-08T14:59:50.350Z,29.45
2019-06-08T15:02:23.508Z,29.60
2019-06-08T15:04:55.707Z,29.69
2019-06-08T15:07:31.345Z,29.67
2019-06-08T15:10:01.668Z,29.64
2019-06-08T15:12:34.127Z,29.27
2019-06-08T15:15:10.783Z,28.87
2019-06-08T15:17:41.123Z,28.89
2019-06-08T15:20:13.189Z,28.91
2019-06-08T15:22:45.191Z,28.68
2019-06-08T15:25:18.531Z,28.67
2019-06-08T15:27:50.751Z,28.66
2019-06-08T15:30:23.081Z,28.76
2019-06-08T15:32:55.230Z,28.72
2019-06-08T15:35:29.382Z,28.60
2019-06-08T15:38:01.576Z,28.34
2019-06-08T15:40:33.770Z,28.20
2019-06-08T15:43:05.782Z,28.02
2019-06-08T15:45:38.687Z,27.96
2019-06-08T15:48:10.725Z,27.89
2019-06-08T15:50:42.723Z,27.92
2019-06-08T15:53:14.918Z,27.90
2019-06-08T15:55:48.765Z,27.99
2019-06-08T15:58:20.829Z,27.75
2019-06-08T16:00:55.696Z,27.84
2019-06-08T16:03:27.420Z,27.84
2019-06-08T16:05:59.654Z,27.97
2019-06-08T16:08:32.327Z,27.91
2019-06-08T16:11:05.570Z,27.90
2019-06-08T16:13:37.687Z,27.62
2019-06-08T16:16:10.558Z,27.56
2019-06-08T16:18:42.680Z,27.67
2019-06-08T16:21:15.968Z,27.59
2019-06-08T16:23:49.110Z,27.64
2019-06-08T16:26:21.383Z,27.62
2019-06-08T16:28:53.339Z,27.70
2019-06-08T16:31:27.034Z,27.50
2019-06-08T16:33:59.180Z,27.32
2019-06-08T16:36:31.508Z,27.28
2019-06-08T16:39:05.115Z,27.31
2019-06-08T16:41:37.228Z,27.30
2019-06-08T16:44:09.296Z,27.13
2019-06-08T16:46:41.353Z,27.13
2019-06-08T16:49:13.504Z,27.12
2019-06-08T16:51:45.621Z,27.14
2019-06-08T16:54:17.794Z,27.19
2019-06-08T16:56:49.957Z,27.15
2019-06-08T16:59:22.132Z,27.00
2019-06-08T17:01:54.217Z,27.00
2019-06-08T17:04:26.316Z,26.94
2019-06-08T17:06:58.308Z,26.78
2019-06-08T17:09:32.378Z,26.60
2019-06-08T17:12:05.384Z,26.56
2019-06-08T17:14:38.635Z,26.48
2019-06-08T17:17:10.891Z,26.30
2019-06-08T17:19:42.930Z,26.20
2019-06-08T17:22:14.932Z,25.98
2019-06-08T17:24:47.108Z,25.81
2019-06-08T17:27:26.670Z,25.69
2019-06-08T17:29:52.859Z,25.66
2019-06-08T17:32:24.857Z,25.63
2019-06-08T17:34:56.889Z,25.53
2019-06-08T17:37:28.875Z,25.38
2019-06-08T17:40:01.964Z,25.30
2019-06-08T17:42:34.781Z,25.31
2019-06-08T17:45:08.264Z,25.20
2019-06-08T17:47:40.688Z,25.30
2019-06-08T17:50:13.094Z,25.31
2019-06-08T17:52:45.139Z,25.28
2019-06-08T17:55:17.223Z,25.28
2019-06-08T17:57:53.440Z,25.22
2019-06-08T18:00:24.515Z,25.07
2019-06-08T18:03:00.717Z,25.02
2019-06-08T18:05:31.635Z,24.89
2019-06-08T18:08:03.611Z,24.84
2019-06-08T18:10:38.076Z,24.93
2019-06-08T18:13:09.366Z,24.91
2019-06-08T18:15:43.730Z,24.83
2019-06-08T18:18:17.632Z,24.86
2019-06-08T18:20:52.108Z,24.78
2019-06-08T18:23:23.690Z,24.83
2019-06-08T18:25:58.064Z,24.73
2019-06-08T18:28:29.703Z,24.60
2019-06-08T18:31:01.920Z,24.37
2019-06-08T18:33:34.707Z,24.32
2019-06-08T18:36:07.847Z,24.22
2019-06-08T18:38:41.381Z,24.11
2019-06-08T18:41:13.634Z,24.07
2019-06-08T18:43:48.503Z,24.14
2019-06-08T18:46:19.507Z,24.15
2019-06-08T18:48:52.081Z,24.07
2019-06-08T18:51:24.302Z,23.94
2019-06-08T18:54:08.758Z,24.11
2019-06-08T18:56:30.410Z,24.20
2019-06-08T18:59:02.393Z,24.37
2019-06-08T19:01:37.913Z,24.33
2019-06-08T19:04:09.328Z,24.09
2019-06-08T19:06:42.643Z,24.19
2019-06-08T19:09:17.150Z,24.04
2019-06-08T19:11:50.196Z,23.92
2019-06-08T19:14:22.415Z,23.79
2019-06-08T19:16:54.948Z,23.69
2019-06-08T19:19:31.046Z,23.56
2019-06-08T19:22:00.828Z,23.55
2019-06-08T19:24:32.713Z,23.40
2019-06-08T19:27:07.688Z,23.40
2019-06-08T19:29:40.917Z,23.28
2019-06-08T19:32:13.634Z,23.25
2019-06-08T19:34:53.174Z,23.19
2019-06-08T19:37:19.420Z,23.22
2019-06-08T19:39:51.394Z,23.22
2019-06-08T19:42:35.611Z,23.18
2019-06-08T19:45:05.065Z,23.15
2019-06-08T19:47:32.107Z,23.09
2019-06-08T19:50:07.624Z,23.03
2019-06-08T19:52:42.100Z,22.96
2019-06-08T19:55:11.759Z,22.93
2019-06-08T19:57:43.916Z,22.89
2019-06-08T20:00:18.009Z,22.83
2019-06-08T20:02:53.325Z,22.76
2019-06-08T20:05:23.605Z,22.66
2019-06-08T20:07:57.526Z,22.60
2019-06-08T20:10:29.512Z,22.53
2019-06-08T20:13:01.530Z,22.55
2019-06-08T20:15:33.484Z,22.53
2019-06-08T20:18:05.777Z,22.52
2019-06-08T20:20:38.237Z,22.56
2019-06-08T20:23:10.357Z,22.46
2019-06-08T20:25:43.144Z,22.44
2019-06-08T20:28:17.304Z,22.39
2019-06-08T20:30:49.137Z,22.41
2019-06-08T20:33:21.185Z,22.41
2019-06-08T20:35:53.914Z,22.43
2019-06-08T20:38:37.214Z,22.38
2019-06-08T20:40:59.638Z,22.35
2019-06-08T20:43:31.711Z,22.18
2019-06-08T20:46:03.845Z,22.24
2019-06-08T20:48:37.823Z,22.27
2019-06-08T20:51:09.683Z,22.26
2019-06-08T20:53:42.376Z,22.21
2019-06-08T20:56:14.360Z,22.20
2019-06-08T20:58:48.349Z,22.28
2019-06-08T21:01:20.130Z,22.33
2019-06-08T21:03:52.793Z,22.28
2019-06-08T21:06:25.088Z,22.21
2019-06-08T21:08:58.581Z,22.22
2019-06-08T21:11:30.840Z,22.21
2019-06-08T21:14:02.920Z,22.25
2019-06-08T21:16:34.883Z,22.23
2019-06-08T21:19:07.245Z,22.22
2019-06-08T21:21:39.434Z,22.19
2019-06-08T21:24:11.508Z,22.13
2019-06-08T21:26:43.505Z,22.17
2019-06-08T21:29:17.591Z,22.06
2019-06-08T21:31:52.263Z,22.01
2019-06-08T21:34:23.042Z,22.04
2019-06-08T21:36:56.568Z,21.98
2019-06-08T21:39:28.950Z,22.02
2019-06-08T21:42:03.113Z,22.09
2019-06-08T21:44:37.253Z,21.97
2019-06-08T21:47:09.621Z,22.02
2019-06-08T21:49:41.633Z,22.04
2019-06-08T21:52:13.624Z,21.92
2019-06-08T21:54:45.669Z,21.79
2019-06-08T21:57:18.531Z,21.36
2019-06-08T22:00:09.713Z,20.96
2019-06-08T22:02:24.616Z,20.62
2019-06-08T22:05:01.638Z,20.27
2019-06-08T22:07:30.645Z,20.11
2019-06-08T22:10:03.249Z,20.00
2019-06-08T22:12:39.851Z,20.26
2019-06-08T22:15:09.690Z,20.09
2019-06-08T22:17:41.803Z,20.21
2019-06-08T22:20:14.268Z,20.35
2019-06-08T22:22:47.292Z,20.54
2019-06-08T22:25:19.961Z,20.34
2019-06-08T22:27:52.544Z,20.27
2019-06-08T22:30:36.407Z,20.18
2019-06-08T22:32:59.879Z,20.23
2019-06-08T22:35:32.048Z,20.55
2019-06-08T22:38:04.135Z,20.68
2019-06-08T22:40:37.123Z,20.80
2019-06-08T22:43:09.577Z,20.81
2019-06-08T22:45:41.623Z,20.84
2019-06-08T22:48:13.672Z,20.95
2019-06-08T22:50:47.704Z,21.00
2019-06-08T22:53:19.369Z,20.96
2019-06-08T22:55:51.425Z,21.01
2019-06-08T22:58:23.387Z,21.05
2019-06-08T23:00:57.026Z,21.04
2019-06-08T23:03:29.145Z,21.17
2019-06-08T23:06:02.692Z,21.14
2019-06-08T23:08:37.326Z,21.12
2019-06-08T23:11:08.783Z,21.18
2019-06-08T23:13:40.734Z,21.14
2019-06-08T23:16:12.844Z,21.14
2019-06-08T23:18:44.893Z,21.22
2019-06-08T23:21:18.091Z,21.26
2019-06-08T23:23:50.307Z,21.31
2019-06-08T23:26:23.363Z,21.28
2019-06-08T23:28:56.081Z,21.23
2019-06-08T23:31:29.091Z,21.23
2019-06-08T23:34:03.924Z,21.25
2019-06-08T23:36:50.309Z,21.29
2019-06-08T23:39:08.747Z,21.38
2019-06-08T23:41:40.909Z,21.37
2019-06-08T23:44:12.854Z,21.42
2019-06-08T23:46:44.872Z,21.48
2019-06-08T23:49:18.683Z,21.60
2019-06-08T23:51:50.849Z,21.65
2019-06-08T23:54:22.901Z,21.63
2019-06-08T23:56:54.893Z,21.60
2019-06-08T23:59:27.709Z,21.63
